sensor_id;sensor_type;location;lat;lon;timestamp;temperature;humidity
69776;DHT22;57049;51.450;-2.516;2024-02-21T00:00:21;9.63;99.95
69776;DHT22;57049;51.450;-2.516;2024-02-21T00:02:47;9.58;99.99
69776;DHT22;57049;51.450;-2.516;2024-02-21T00:05:12;9.55;99.99
69776;DHT22;57049;51.450;-2.516;2024-02-21T00:07:38;9.58;99.99
69776;DHT22;57049;51.450;-2.516;2024-02-21T00:10:04;9.59;99.99
69776;DHT22;57049;51.450;-2.516;2024-02-21T00:12:29;9.59;99.99
69776;DHT22;57049;51.450;-2.516;2024-02-21T00:14:55;9.60;99.99
69776;DHT22;57049;51.450;-2.516;2024-02-21T00:17:20;9.63;99.99
69776;DHT22;57049;51.450;-2.516;2024-02-21T00:19:45;9.69;99.99
69776;DHT22;57049;51.450;-2.516;2024-02-21T00:22:11;9.68;99.99
69776;DHT22;57049;51.450;-2.516;2024-02-21T00:24:36;9.72;99.99
69776;DHT22;57049;51.450;-2.516;2024-02-21T00:27:02;9.72;99.99
69776;DHT22;57049;51.450;-2.516;2024-02-21T00:29:27;9.75;99.99
69776;DHT22;57049;51.450;-2.516;2024-02-21T00:31:53;9.69;99.99
69776;DHT22;57049;51.450;-2.516;2024-02-21T00:34:18;9.68;99.99
69776;DHT22;57049;51.450;-2.516;2024-02-21T00:36:44;9.70;99.99
69776;DHT22;57049;51.450;-2.516;2024-02-21T00:39:09;9.75;99.99
69776;DHT22;57049;51.450;-2.516;2024-02-21T00:41:35;9.72;99.99
69776;DHT22;57049;51.450;-2.516;2024-02-21T00:44:00;9.72;99.99
69776;DHT22;57049;51.450;-2.516;2024-02-21T00:46:26;9.68;99.99
69776;DHT22;57049;51.450;-2.516;2024-02-21T00:48:51;9.73;99.99
69776;DHT22;57049;51.450;-2.516;2024-02-21T00:51:17;9.73;99.99
69776;DHT22;57049;51.450;-2.516;2024-02-21T00:53:43;9.78;99.99
69776;DHT22;57049;51.450;-2.516;2024-02-21T00:56:08;9.72;99.99
69776;DHT22;57049;51.450;-2.516;2024-02-21T00:58:34;9.72;99.99
69776;DHT22;57049;51.450;-2.516;2024-02-21T01:01:00;9.70;99.99
69776;DHT22;57049;51.450;-2.516;2024-02-21T01:03:26;9.70;99.99
69776;DHT22;57049;51.450;-2.516;2024-02-21T01:05:52;9.78;99.99
69776;DHT22;57049;51.450;-2.516;2024-02-21T01:08:17;9.76;99.99
69776;DHT22;57049;51.450;-2.516;2024-02-21T01:10:43;9.73;99.99
69776;DHT22;57049;51.450;-2.516;2024-02-21T01:13:08;9.78;99.99
69776;DHT22;57049;51.450;-2.516;2024-02-21T01:15:34;9.78;99.99
69776;DHT22;57049;51.450;-2.516;2024-02-21T01:18:01;9.80;99.99
69776;DHT22;57049;51.450;-2.516;2024-02-21T01:20:26;9.80;99.99
69776;DHT22;57049;51.450;-2.516;2024-02-21T01:22:52;9.78;99.99
69776;DHT22;57049;51.450;-2.516;2024-02-21T01:25:17;9.75;99.99
69776;DHT22;57049;51.450;-2.516;2024-02-21T01:27:43;9.75;99.99
69776;DHT22;57049;51.450;-2.516;2024-02-21T01:30:08;9.72;99.99
69776;DHT22;57049;51.450;-2.516;2024-02-21T01:32:36;9.75;99.99
69776;DHT22;57049;51.450;-2.516;2024-02-21T01:35:01;9.75;99.99
69776;DHT22;57049;51.450;-2.516;2024-02-21T01:37:27;9.73;99.99
69776;DHT22;57049;51.450;-2.516;2024-02-21T01:39:53;9.70;99.99
69776;DHT22;57049;51.450;-2.516;2024-02-21T01:42:18;9.68;99.99
69776;DHT22;57049;51.450;-2.516;2024-02-21T01:44:44;9.69;99.99
69776;DHT22;57049;51.450;-2.516;2024-02-21T01:47:10;9.70;99.99
69776;DHT22;57049;51.450;-2.516;2024-02-21T01:49:36;9.68;99.91
69776;DHT22;57049;51.450;-2.516;2024-02-21T01:52:02;9.72;99.88
69776;DHT22;57049;51.450;-2.516;2024-02-21T01:54:28;9.72;99.75
69776;DHT22;57049;51.450;-2.516;2024-02-21T01:56:54;9.75;99.71
69776;DHT22;57049;51.450;-2.516;2024-02-21T01:59:21;9.73;99.58
69776;DHT22;57049;51.450;-2.516;2024-02-21T02:01:46;9.73;99.51
69776;DHT22;57049;51.450;-2.516;2024-02-21T02:04:13;9.73;99.49
69776;DHT22;57049;51.450;-2.516;2024-02-21T02:06:39;9.75;99.44
69776;DHT22;57049;51.450;-2.516;2024-02-21T02:09:05;9.70;99.34
69776;DHT22;57049;51.450;-2.516;2024-02-21T02:11:32;9.75;99.22
69776;DHT22;57049;51.450;-2.516;2024-02-21T02:13:57;9.72;99.00
69776;DHT22;57049;51.450;-2.516;2024-02-21T02:16:23;9.72;99.01
69776;DHT22;57049;51.450;-2.516;2024-02-21T02:18:48;9.70;98.87
69776;DHT22;57049;51.450;-2.516;2024-02-21T02:21:26;9.69;98.66
69776;DHT22;57049;51.450;-2.516;2024-02-21T02:23:52;9.69;98.59
69776;DHT22;57049;51.450;-2.516;2024-02-21T02:26:18;9.73;98.28
69776;DHT22;57049;51.450;-2.516;2024-02-21T02:28:43;9.70;98.25
69776;DHT22;57049;51.450;-2.516;2024-02-21T02:31:09;9.68;98.06
69776;DHT22;57049;51.450;-2.516;2024-02-21T02:33:35;9.60;97.97
69776;DHT22;57049;51.450;-2.516;2024-02-21T02:36:01;9.63;97.81
69776;DHT22;57049;51.450;-2.516;2024-02-21T02:38:26;9.63;97.60
69776;DHT22;57049;51.450;-2.516;2024-02-21T02:40:52;9.63;97.39
69776;DHT22;57049;51.450;-2.516;2024-02-21T02:43:17;9.62;97.32
69776;DHT22;57049;51.450;-2.516;2024-02-21T02:45:42;9.58;97.20
69776;DHT22;57049;51.450;-2.516;2024-02-21T02:48:08;9.55;96.80
69776;DHT22;57049;51.450;-2.516;2024-02-21T02:50:33;9.55;96.75
69776;DHT22;57049;51.450;-2.516;2024-02-21T02:52:59;9.50;96.41
69776;DHT22;57049;51.450;-2.516;2024-02-21T02:55:24;9.50;96.50
69776;DHT22;57049;51.450;-2.516;2024-02-21T02:57:51;9.48;96.44
69776;DHT22;57049;51.450;-2.516;2024-02-21T03:00:17;9.46;96.44
69776;DHT22;57049;51.450;-2.516;2024-02-21T03:02:44;9.48;96.35
69776;DHT22;57049;51.450;-2.516;2024-02-21T03:05:19;9.42;96.46
69776;DHT22;57049;51.450;-2.516;2024-02-21T03:07:45;9.46;96.43
69776;DHT22;57049;51.450;-2.516;2024-02-21T03:10:11;9.41;96.54
69776;DHT22;57049;51.450;-2.516;2024-02-21T03:12:37;9.38;96.81
69776;DHT22;57049;51.450;-2.516;2024-02-21T03:15:03;9.38;97.05
69776;DHT22;57049;51.450;-2.516;2024-02-21T03:17:29;9.32;97.58
69776;DHT22;57049;51.450;-2.516;2024-02-21T03:19:55;9.27;97.94
69776;DHT22;57049;51.450;-2.516;2024-02-21T03:22:23;9.27;97.98
69776;DHT22;57049;51.450;-2.516;2024-02-21T03:24:49;9.27;97.87
69776;DHT22;57049;51.450;-2.516;2024-02-21T03:27:14;9.28;97.77
69776;DHT22;57049;51.450;-2.516;2024-02-21T03:29:40;9.28;97.85
69776;DHT22;57049;51.450;-2.516;2024-02-21T03:32:05;9.22;97.97
69776;DHT22;57049;51.450;-2.516;2024-02-21T03:34:31;9.21;97.92
69776;DHT22;57049;51.450;-2.516;2024-02-21T03:36:56;9.18;98.03
69776;DHT22;57049;51.450;-2.516;2024-02-21T03:39:22;9.22;97.92
69776;DHT22;57049;51.450;-2.516;2024-02-21T03:41:48;9.18;98.00
69776;DHT22;57049;51.450;-2.516;2024-02-21T03:44:14;9.18;98.07
69776;DHT22;57049;51.450;-2.516;2024-02-21T03:46:39;9.17;98.04
69776;DHT22;57049;51.450;-2.516;2024-02-21T03:49:05;9.15;98.06
69776;DHT22;57049;51.450;-2.516;2024-02-21T03:51:30;9.08;98.22
69776;DHT22;57049;51.450;-2.516;2024-02-21T03:53:56;9.08;98.17
69776;DHT22;57049;51.450;-2.516;2024-02-21T03:56:22;9.07;98.50
69776;DHT22;57049;51.450;-2.516;2024-02-21T03:58:47;9.07;98.63
69776;DHT22;57049;51.450;-2.516;2024-02-21T04:01:15;9.07;98.72
69776;DHT22;57049;51.450;-2.516;2024-02-21T04:03:41;9.08;98.68
69776;DHT22;57049;51.450;-2.516;2024-02-21T04:06:07;9.10;98.82
69776;DHT22;57049;51.450;-2.516;2024-02-21T04:08:33;9.10;98.89
69776;DHT22;57049;51.450;-2.516;2024-02-21T04:10:58;9.11;99.25
69776;DHT22;57049;51.450;-2.516;2024-02-21T04:13:24;9.12;98.86
69776;DHT22;57049;51.450;-2.516;2024-02-21T04:15:50;9.10;99.05
69776;DHT22;57049;51.450;-2.516;2024-02-21T04:18:16;9.08;99.01
69776;DHT22;57049;51.450;-2.516;2024-02-21T04:20:41;9.10;99.14
69776;DHT22;57049;51.450;-2.516;2024-02-21T04:23:07;9.11;99.37
69776;DHT22;57049;51.450;-2.516;2024-02-21T04:25:32;9.08;99.49
69776;DHT22;57049;51.450;-2.516;2024-02-21T04:27:58;9.11;99.69
69776;DHT22;57049;51.450;-2.516;2024-02-21T04:30:23;9.11;99.58
69776;DHT22;57049;51.450;-2.516;2024-02-21T04:32:48;9.07;99.53
69776;DHT22;57049;51.450;-2.516;2024-02-21T04:35:14;9.07;99.70
69776;DHT22;57049;51.450;-2.516;2024-02-21T04:37:39;9.08;99.59
69776;DHT22;57049;51.450;-2.516;2024-02-21T04:40:05;9.05;99.64
69776;DHT22;57049;51.450;-2.516;2024-02-21T04:42:31;9.05;99.79
69776;DHT22;57049;51.450;-2.516;2024-02-21T04:44:57;9.01;99.97
69776;DHT22;57049;51.450;-2.516;2024-02-21T04:47:22;9.05;99.99
69776;DHT22;57049;51.450;-2.516;2024-02-21T04:49:50;9.04;99.99
69776;DHT22;57049;51.450;-2.516;2024-02-21T04:52:16;9.04;99.99
69776;DHT22;57049;51.450;-2.516;2024-02-21T04:54:41;9.07;99.99
69776;DHT22;57049;51.450;-2.516;2024-02-21T04:57:07;9.10;99.99
69776;DHT22;57049;51.450;-2.516;2024-02-21T04:59:32;9.08;99.99
69776;DHT22;57049;51.450;-2.516;2024-02-21T05:01:58;9.08;99.99
69776;DHT22;57049;51.450;-2.516;2024-02-21T05:04:24;9.11;99.99
69776;DHT22;57049;51.450;-2.516;2024-02-21T05:06:49;9.12;99.99
69776;DHT22;57049;51.450;-2.516;2024-02-21T05:09:15;9.18;99.99
69776;DHT22;57049;51.450;-2.516;2024-02-21T05:11:41;9.21;99.99
69776;DHT22;57049;51.450;-2.516;2024-02-21T05:14:06;9.21;99.99
69776;DHT22;57049;51.450;-2.516;2024-02-21T05:16:32;9.17;99.99
69776;DHT22;57049;51.450;-2.516;2024-02-21T05:18:58;9.17;99.99
69776;DHT22;57049;51.450;-2.516;2024-02-21T05:21:24;9.15;99.96
69776;DHT22;57049;51.450;-2.516;2024-02-21T05:23:50;9.15;99.99
69776;DHT22;57049;51.450;-2.516;2024-02-21T05:26:25;9.14;99.99
69776;DHT22;57049;51.450;-2.516;2024-02-21T05:28:51;9.11;99.99
69776;DHT22;57049;51.450;-2.516;2024-02-21T05:31:20;9.15;99.99
69776;DHT22;57049;51.450;-2.516;2024-02-21T05:33:46;9.15;99.99
69776;DHT22;57049;51.450;-2.516;2024-02-21T05:36:12;9.14;99.99
69776;DHT22;57049;51.450;-2.516;2024-02-21T05:38:38;9.11;99.99
69776;DHT22;57049;51.450;-2.516;2024-02-21T05:41:04;9.12;99.99
69776;DHT22;57049;51.450;-2.516;2024-02-21T05:43:29;9.10;99.99
69776;DHT22;57049;51.450;-2.516;2024-02-21T05:45:55;9.07;99.99
69776;DHT22;57049;51.450;-2.516;2024-02-21T05:48:22;9.05;99.99
69776;DHT22;57049;51.450;-2.516;2024-02-21T05:50:47;9.04;99.99
69776;DHT22;57049;51.450;-2.516;2024-02-21T05:53:13;8.97;99.99
69776;DHT22;57049;51.450;-2.516;2024-02-21T05:55:38;9.00;99.99
69776;DHT22;57049;51.450;-2.516;2024-02-21T05:58:04;8.96;99.99
69776;DHT22;57049;51.450;-2.516;2024-02-21T06:00:31;8.91;99.99
69776;DHT22;57049;51.450;-2.516;2024-02-21T06:02:57;8.90;99.99
69776;DHT22;57049;51.450;-2.516;2024-02-21T06:05:22;8.85;99.99
69776;DHT22;57049;51.450;-2.516;2024-02-21T06:07:47;8.80;99.99
69776;DHT22;57049;51.450;-2.516;2024-02-21T06:10:13;8.71;99.99
69776;DHT22;57049;51.450;-2.516;2024-02-21T06:12:39;8.73;99.99
69776;DHT22;57049;51.450;-2.516;2024-02-21T06:15:05;8.74;99.99
69776;DHT22;57049;51.450;-2.516;2024-02-21T06:17:31;8.76;99.99
69776;DHT22;57049;51.450;-2.516;2024-02-21T06:19:56;8.73;99.99
69776;DHT22;57049;51.450;-2.516;2024-02-21T06:22:21;8.73;99.99
69776;DHT22;57049;51.450;-2.516;2024-02-21T06:24:47;8.76;99.99
69776;DHT22;57049;51.450;-2.516;2024-02-21T06:27:12;8.76;99.99
69776;DHT22;57049;51.450;-2.516;2024-02-21T06:29:40;8.78;99.99
69776;DHT22;57049;51.450;-2.516;2024-02-21T06:32:05;8.84;99.99
69776;DHT22;57049;51.450;-2.516;2024-02-21T06:34:31;8.88;99.99
69776;DHT22;57049;51.450;-2.516;2024-02-21T06:36:57;8.88;99.99
69776;DHT22;57049;51.450;-2.516;2024-02-21T06:39:23;8.96;99.99
69776;DHT22;57049;51.450;-2.516;2024-02-21T06:41:49;8.97;99.99
69776;DHT22;57049;51.450;-2.516;2024-02-21T06:44:19;8.98;99.99
69776;DHT22;57049;51.450;-2.516;2024-02-21T06:46:44;9.01;99.99
69776;DHT22;57049;51.450;-2.516;2024-02-21T06:49:10;9.03;99.99
69776;DHT22;57049;51.450;-2.516;2024-02-21T06:51:44;9.05;99.99
69776;DHT22;57049;51.450;-2.516;2024-02-21T06:54:09;9.10;99.99
69776;DHT22;57049;51.450;-2.516;2024-02-21T06:56:36;9.11;99.99
69776;DHT22;57049;51.450;-2.516;2024-02-21T06:59:01;9.14;99.99
69776;DHT22;57049;51.450;-2.516;2024-02-21T07:01:29;9.15;99.99
69776;DHT22;57049;51.450;-2.516;2024-02-21T07:03:54;9.15;99.99
69776;DHT22;57049;51.450;-2.516;2024-02-21T07:06:20;9.17;99.99
69776;DHT22;57049;51.450;-2.516;2024-02-21T07:08:45;9.17;99.99
69776;DHT22;57049;51.450;-2.516;2024-02-21T07:11:11;9.21;99.99
69776;DHT22;57049;51.450;-2.516;2024-02-21T07:13:36;9.18;99.99
69776;DHT22;57049;51.450;-2.516;2024-02-21T07:16:02;9.19;99.99
69776;DHT22;57049;51.450;-2.516;2024-02-21T07:18:27;9.27;99.99
69776;DHT22;57049;51.450;-2.516;2024-02-21T07:20:53;9.28;99.99
69776;DHT22;57049;51.450;-2.516;2024-02-21T07:23:19;9.29;99.99
69776;DHT22;57049;51.450;-2.516;2024-02-21T07:25:44;9.34;99.99
69776;DHT22;57049;51.450;-2.516;2024-02-21T07:28:10;9.35;99.99
69776;DHT22;57049;51.450;-2.516;2024-02-21T07:30:36;9.36;99.99
69776;DHT22;57049;51.450;-2.516;2024-02-21T07:33:01;9.35;99.99
69776;DHT22;57049;51.450;-2.516;2024-02-21T07:35:27;9.38;99.99
69776;DHT22;57049;51.450;-2.516;2024-02-21T07:37:52;9.39;99.99
69776;DHT22;57049;51.450;-2.516;2024-02-21T07:40:18;9.41;99.99
69776;DHT22;57049;51.450;-2.516;2024-02-21T07:42:44;9.41;99.99
69776;DHT22;57049;51.450;-2.516;2024-02-21T07:45:10;9.41;99.99
69776;DHT22;57049;51.450;-2.516;2024-02-21T07:47:36;9.41;99.99
69776;DHT22;57049;51.450;-2.516;2024-02-21T07:50:05;9.43;99.99
69776;DHT22;57049;51.450;-2.516;2024-02-21T07:52:31;9.42;99.99
69776;DHT22;57049;51.450;-2.516;2024-02-21T07:54:56;9.46;99.99
69776;DHT22;57049;51.450;-2.516;2024-02-21T07:57:22;9.45;99.99
69776;DHT22;57049;51.450;-2.516;2024-02-21T07:59:48;9.46;99.99
69776;DHT22;57049;51.450;-2.516;2024-02-21T08:02:14;9.43;99.99
69776;DHT22;57049;51.450;-2.516;2024-02-21T08:04:39;9.43;99.99
69776;DHT22;57049;51.450;-2.516;2024-02-21T08:07:05;9.43;99.99
69776;DHT22;57049;51.450;-2.516;2024-02-21T08:09:30;9.45;99.99
69776;DHT22;57049;51.450;-2.516;2024-02-21T08:11:56;9.46;99.99
69776;DHT22;57049;51.450;-2.516;2024-02-21T08:14:22;9.48;99.99
69776;DHT22;57049;51.450;-2.516;2024-02-21T08:16:48;9.46;99.99
69776;DHT22;57049;51.450;-2.516;2024-02-21T08:19:13;9.46;99.99
69776;DHT22;57049;51.450;-2.516;2024-02-21T08:21:39;9.50;99.99
69776;DHT22;57049;51.450;-2.516;2024-02-21T08:24:04;9.49;99.99
69776;DHT22;57049;51.450;-2.516;2024-02-21T08:26:30;9.49;99.99
69776;DHT22;57049;51.450;-2.516;2024-02-21T08:28:57;9.50;99.99
69776;DHT22;57049;51.450;-2.516;2024-02-21T08:31:26;9.50;99.99
69776;DHT22;57049;51.450;-2.516;2024-02-21T08:34:02;9.49;99.99
69776;DHT22;57049;51.450;-2.516;2024-02-21T08:36:35;9.55;99.99
69776;DHT22;57049;51.450;-2.516;2024-02-21T08:39:01;9.53;99.99
69776;DHT22;57049;51.450;-2.516;2024-02-21T08:41:30;9.56;99.99
69776;DHT22;57049;51.450;-2.516;2024-02-21T08:43:56;9.56;99.99
69776;DHT22;57049;51.450;-2.516;2024-02-21T08:46:22;9.58;99.99
69776;DHT22;57049;51.450;-2.516;2024-02-21T08:48:50;9.60;99.99
69776;DHT22;57049;51.450;-2.516;2024-02-21T08:51:16;9.58;99.99
69776;DHT22;57049;51.450;-2.516;2024-02-21T08:53:43;9.58;99.99
69776;DHT22;57049;51.450;-2.516;2024-02-21T08:56:09;9.59;99.99
69776;DHT22;57049;51.450;-2.516;2024-02-21T08:58:36;9.63;99.99
69776;DHT22;57049;51.450;-2.516;2024-02-21T09:01:05;9.63;99.99
69776;DHT22;57049;51.450;-2.516;2024-02-21T09:03:32;9.63;99.99
69776;DHT22;57049;51.450;-2.516;2024-02-21T09:05:58;9.65;99.99
69776;DHT22;57049;51.450;-2.516;2024-02-21T09:08:24;9.62;99.99
69776;DHT22;57049;51.450;-2.516;2024-02-21T09:10:50;9.63;99.99
69776;DHT22;57049;51.450;-2.516;2024-02-21T09:13:16;9.66;99.99
69776;DHT22;57049;51.450;-2.516;2024-02-21T09:15:42;9.69;99.99
69776;DHT22;57049;51.450;-2.516;2024-02-21T09:18:08;9.70;99.99
69776;DHT22;57049;51.450;-2.516;2024-02-21T09:20:33;9.73;99.99
69776;DHT22;57049;51.450;-2.516;2024-02-21T09:22:59;9.75;99.99
69776;DHT22;57049;51.450;-2.516;2024-02-21T09:25:24;9.78;99.99
69776;DHT22;57049;51.450;-2.516;2024-02-21T09:27:50;9.83;99.99
69776;DHT22;57049;51.450;-2.516;2024-02-21T09:30:17;9.83;99.99
69776;DHT22;57049;51.450;-2.516;2024-02-21T09:32:44;9.87;99.99
69776;DHT22;57049;51.450;-2.516;2024-02-21T09:35:09;9.89;99.99
69776;DHT22;57049;51.450;-2.516;2024-02-21T09:37:35;9.92;99.99
69776;DHT22;57049;51.450;-2.516;2024-02-21T09:40:01;9.90;99.99
69776;DHT22;57049;51.450;-2.516;2024-02-21T09:42:38;9.96;99.99
69776;DHT22;57049;51.450;-2.516;2024-02-21T09:45:30;9.93;99.99
69776;DHT22;57049;51.450;-2.516;2024-02-21T09:50:57;9.99;99.99
69776;DHT22;57049;51.450;-2.516;2024-02-21T09:53:24;10.00;99.99
69776;DHT22;57049;51.450;-2.516;2024-02-21T09:55:50;9.99;99.99
69776;DHT22;57049;51.450;-2.516;2024-02-21T09:58:16;10.06;99.99
69776;DHT22;57049;51.450;-2.516;2024-02-21T10:00:41;10.07;99.99
69776;DHT22;57049;51.450;-2.516;2024-02-21T10:03:07;10.01;99.99
69776;DHT22;57049;51.450;-2.516;2024-02-21T10:05:36;10.07;99.99
69776;DHT22;57049;51.450;-2.516;2024-02-21T10:08:03;10.04;99.99
69776;DHT22;57049;51.450;-2.516;2024-02-21T10:10:28;10.01;99.99
69776;DHT22;57049;51.450;-2.516;2024-02-21T10:12:55;10.04;99.99
69776;DHT22;57049;51.450;-2.516;2024-02-21T10:15:22;10.06;99.99
69776;DHT22;57049;51.450;-2.516;2024-02-21T10:17:58;10.07;99.99
69776;DHT22;57049;51.450;-2.516;2024-02-21T10:20:24;10.09;99.99
69776;DHT22;57049;51.450;-2.516;2024-02-21T10:23:03;10.10;99.99
69776;DHT22;57049;51.450;-2.516;2024-02-21T10:25:34;10.11;99.99
69776;DHT22;57049;51.450;-2.516;2024-02-21T10:28:00;10.11;99.99
69776;DHT22;57049;51.450;-2.516;2024-02-21T10:30:25;10.13;99.99
69776;DHT22;57049;51.450;-2.516;2024-02-21T10:32:55;10.14;99.99
69776;DHT22;57049;51.450;-2.516;2024-02-21T10:35:31;10.14;99.99
69776;DHT22;57049;51.450;-2.516;2024-02-21T10:37:57;10.20;99.99
69776;DHT22;57049;51.450;-2.516;2024-02-21T10:40:24;10.17;99.99
69776;DHT22;57049;51.450;-2.516;2024-02-21T10:42:58;10.21;99.99
69776;DHT22;57049;51.450;-2.516;2024-02-21T10:45:31;10.25;99.99
69776;DHT22;57049;51.450;-2.516;2024-02-21T10:48:08;10.25;99.99
69776;DHT22;57049;51.450;-2.516;2024-02-21T10:53:22;10.31;99.99
69776;DHT22;57049;51.450;-2.516;2024-02-21T10:56:00;10.31;99.99
69776;DHT22;57049;51.450;-2.516;2024-02-21T10:58:28;10.38;99.99
69776;DHT22;57049;51.450;-2.516;2024-02-21T11:00:55;10.44;99.99
69776;DHT22;57049;51.450;-2.516;2024-02-21T11:03:21;10.47;99.99
69776;DHT22;57049;51.450;-2.516;2024-02-21T11:05:47;10.47;99.99
69776;DHT22;57049;51.450;-2.516;2024-02-21T11:08:13;10.52;99.99
69776;DHT22;57049;51.450;-2.516;2024-02-21T11:10:39;10.52;99.99
69776;DHT22;57049;51.450;-2.516;2024-02-21T11:13:09;10.47;99.99
69776;DHT22;57049;51.450;-2.516;2024-02-21T11:15:35;10.54;99.99
69776;DHT22;57049;51.450;-2.516;2024-02-21T11:18:00;10.58;99.99
69776;DHT22;57049;51.450;-2.516;2024-02-21T11:20:33;10.60;99.99
69776;DHT22;57049;51.450;-2.516;2024-02-21T11:23:02;10.61;99.99
69776;DHT22;57049;51.450;-2.516;2024-02-21T11:25:30;10.64;99.99
69776;DHT22;57049;51.450;-2.516;2024-02-21T11:28:01;10.69;99.99
69776;DHT22;57049;51.450;-2.516;2024-02-21T11:30:30;10.71;99.99
69776;DHT22;57049;51.450;-2.516;2024-02-21T11:33:06;10.82;99.99
69776;DHT22;57049;51.450;-2.516;2024-02-21T11:35:33;10.89;99.99
69776;DHT22;57049;51.450;-2.516;2024-02-21T11:38:09;10.84;99.99
69776;DHT22;57049;51.450;-2.516;2024-02-21T11:40:38;10.81;99.99
69776;DHT22;57049;51.450;-2.516;2024-02-21T11:43:05;10.76;99.99
69776;DHT22;57049;51.450;-2.516;2024-02-21T11:45:31;10.82;99.99
69776;DHT22;57049;51.450;-2.516;2024-02-21T11:47:58;10.82;99.99
69776;DHT22;57049;51.450;-2.516;2024-02-21T11:50:26;10.85;99.99
69776;DHT22;57049;51.450;-2.516;2024-02-21T11:52:54;10.85;99.99
69776;DHT22;57049;51.450;-2.516;2024-02-21T11:55:20;10.86;99.99
69776;DHT22;57049;51.450;-2.516;2024-02-21T11:57:47;10.88;99.99
69776;DHT22;57049;51.450;-2.516;2024-02-21T12:00:15;10.98;99.99
69776;DHT22;57049;51.450;-2.516;2024-02-21T12:02:41;10.95;99.99
69776;DHT22;57049;51.450;-2.516;2024-02-21T12:05:07;10.95;99.99
69776;DHT22;57049;51.450;-2.516;2024-02-21T12:07:33;10.96;99.99
69776;DHT22;57049;51.450;-2.516;2024-02-21T12:09:59;10.98;99.99
69776;DHT22;57049;51.450;-2.516;2024-02-21T12:12:25;10.95;99.99
69776;DHT22;57049;51.450;-2.516;2024-02-21T12:14:57;10.89;99.99
69776;DHT22;57049;51.450;-2.516;2024-02-21T12:17:25;10.88;99.99
69776;DHT22;57049;51.450;-2.516;2024-02-21T12:19:51;10.94;99.99
69776;DHT22;57049;51.450;-2.516;2024-02-21T12:22:18;10.92;99.99
69776;DHT22;57049;51.450;-2.516;2024-02-21T12:24:43;10.95;99.99
69776;DHT22;57049;51.450;-2.516;2024-02-21T12:27:13;11.05;99.99
69776;DHT22;57049;51.450;-2.516;2024-02-21T12:29:39;11.16;99.99
69776;DHT22;57049;51.450;-2.516;2024-02-21T12:32:05;11.19;99.99
69776;DHT22;57049;51.450;-2.516;2024-02-21T12:34:30;11.19;99.99
69776;DHT22;57049;51.450;-2.516;2024-02-21T12:36:59;11.22;99.99
69776;DHT22;57049;51.450;-2.516;2024-02-21T12:39:24;11.23;99.99
69776;DHT22;57049;51.450;-2.516;2024-02-21T12:41:52;11.35;99.99
69776;DHT22;57049;51.450;-2.516;2024-02-21T12:44:19;11.43;99.99
69776;DHT22;57049;51.450;-2.516;2024-02-21T12:46:44;11.44;99.99
69776;DHT22;57049;51.450;-2.516;2024-02-21T12:49:10;11.37;99.99
69776;DHT22;57049;51.450;-2.516;2024-02-21T12:51:36;11.39;99.99
69776;DHT22;57049;51.450;-2.516;2024-02-21T12:54:03;11.42;99.99
69776;DHT22;57049;51.450;-2.516;2024-02-21T12:56:28;11.49;99.99
69776;DHT22;57049;51.450;-2.516;2024-02-21T12:58:56;11.53;99.99
69776;DHT22;57049;51.450;-2.516;2024-02-21T13:01:21;11.60;99.99
69776;DHT22;57049;51.450;-2.516;2024-02-21T13:03:47;11.64;99.99
69776;DHT22;57049;51.450;-2.516;2024-02-21T13:06:12;11.69;99.99
69776;DHT22;57049;51.450;-2.516;2024-02-21T13:08:38;11.70;99.99
69776;DHT22;57049;51.450;-2.516;2024-02-21T13:11:04;11.74;99.99
69776;DHT22;57049;51.450;-2.516;2024-02-21T13:13:30;11.71;99.99
69776;DHT22;57049;51.450;-2.516;2024-02-21T13:15:57;11.77;99.99
69776;DHT22;57049;51.450;-2.516;2024-02-21T13:18:22;11.83;99.99
69776;DHT22;57049;51.450;-2.516;2024-02-21T13:20:48;11.83;99.99
69776;DHT22;57049;51.450;-2.516;2024-02-21T13:23:13;11.91;99.99
69776;DHT22;57049;51.450;-2.516;2024-02-21T13:25:38;11.87;99.99
69776;DHT22;57049;51.450;-2.516;2024-02-21T13:28:04;11.88;99.99
69776;DHT22;57049;51.450;-2.516;2024-02-21T13:30:30;11.86;99.99
69776;DHT22;57049;51.450;-2.516;2024-02-21T13:32:55;11.87;99.99
69776;DHT22;57049;51.450;-2.516;2024-02-21T13:35:21;11.87;99.99
69776;DHT22;57049;51.450;-2.516;2024-02-21T13:37:47;11.93;99.99
69776;DHT22;57049;51.450;-2.516;2024-02-21T13:40:12;11.99;99.99
69776;DHT22;57049;51.450;-2.516;2024-02-21T13:42:39;12.04;99.99
69776;DHT22;57049;51.450;-2.516;2024-02-21T13:45:05;12.10;99.99
69776;DHT22;57049;51.450;-2.516;2024-02-21T13:47:34;12.10;99.99
69776;DHT22;57049;51.450;-2.516;2024-02-21T13:50:02;12.15;99.99
69776;DHT22;57049;51.450;-2.516;2024-02-21T13:52:30;12.15;99.99
69776;DHT22;57049;51.450;-2.516;2024-02-21T13:54:55;12.18;99.99
69776;DHT22;57049;51.450;-2.516;2024-02-21T13:57:20;12.25;99.99
69776;DHT22;57049;51.450;-2.516;2024-02-21T13:59:46;12.29;99.99
69776;DHT22;57049;51.450;-2.516;2024-02-21T14:02:11;12.42;99.99
69776;DHT22;57049;51.450;-2.516;2024-02-21T14:04:38;12.48;99.99
69776;DHT22;57049;51.450;-2.516;2024-02-21T14:07:04;12.52;99.99
69776;DHT22;57049;51.450;-2.516;2024-02-21T14:09:29;12.48;99.99
69776;DHT22;57049;51.450;-2.516;2024-02-21T14:11:55;12.48;99.99
69776;DHT22;57049;51.450;-2.516;2024-02-21T14:14:21;12.45;99.99
69776;DHT22;57049;51.450;-2.516;2024-02-21T14:16:46;12.38;99.99
69776;DHT22;57049;51.450;-2.516;2024-02-21T14:19:13;12.25;99.99
69776;DHT22;57049;51.450;-2.516;2024-02-21T14:21:39;12.18;99.99
69776;DHT22;57049;51.450;-2.516;2024-02-21T14:24:05;12.02;99.99
69776;DHT22;57049;51.450;-2.516;2024-02-21T14:26:30;11.97;99.99
69776;DHT22;57049;51.450;-2.516;2024-02-21T14:28:59;11.83;99.99
69776;DHT22;57049;51.450;-2.516;2024-02-21T14:31:25;11.76;99.99
69776;DHT22;57049;51.450;-2.516;2024-02-21T14:33:51;11.74;99.99
69776;DHT22;57049;51.450;-2.516;2024-02-21T14:36:17;11.69;99.99
69776;DHT22;57049;51.450;-2.516;2024-02-21T14:38:43;11.71;99.99
69776;DHT22;57049;51.450;-2.516;2024-02-21T14:41:10;11.66;99.99
69776;DHT22;57049;51.450;-2.516;2024-02-21T14:43:38;11.66;99.99
69776;DHT22;57049;51.450;-2.516;2024-02-21T14:46:03;11.70;99.99
69776;DHT22;57049;51.450;-2.516;2024-02-21T14:48:30;11.66;99.99
69776;DHT22;57049;51.450;-2.516;2024-02-21T14:50:57;11.62;99.99
69776;DHT22;57049;51.450;-2.516;2024-02-21T14:53:23;11.60;99.99
69776;DHT22;57049;51.450;-2.516;2024-02-21T14:55:49;11.54;99.99
69776;DHT22;57049;51.450;-2.516;2024-02-21T14:58:15;11.53;99.99
69776;DHT22;57049;51.450;-2.516;2024-02-21T15:00:43;11.47;99.99
69776;DHT22;57049;51.450;-2.516;2024-02-21T15:03:09;11.44;99.99
69776;DHT22;57049;51.450;-2.516;2024-02-21T15:05:35;11.42;99.99
69776;DHT22;57049;51.450;-2.516;2024-02-21T15:08:01;11.44;99.99
69776;DHT22;57049;51.450;-2.516;2024-02-21T15:10:27;11.43;99.99
69776;DHT22;57049;51.450;-2.516;2024-02-21T15:12:52;11.40;99.99
69776;DHT22;57049;51.450;-2.516;2024-02-21T15:15:18;11.42;99.99
69776;DHT22;57049;51.450;-2.516;2024-02-21T15:17:43;11.43;99.99
69776;DHT22;57049;51.450;-2.516;2024-02-21T15:20:09;11.42;99.99
69776;DHT22;57049;51.450;-2.516;2024-02-21T15:22:36;11.35;99.99
69776;DHT22;57049;51.450;-2.516;2024-02-21T15:25:02;11.36;99.99